sensor_id;sensor_type;location;lat;lon;timestamp;P1;P2;P0
82886;PMS5003;72660;51.258;-2.200;2023-12-14T00:00:04;10;10;
82886;PMS5003;72660;51.258;-2.200;2023-12-14T00:02:29;10;10;
82886;PMS5003;72660;51.258;-2.200;2023-12-14T00:04:55;11;8;
82886;PMS5003;72660;51.258;-2.200;2023-12-14T00:07:20;12;10;
82886;PMS5003;72660;51.258;-2.200;2023-12-14T00:09:45;13;11;
82886;PMS5003;72660;51.258;-2.200;2023-12-14T00:12:11;13;11;
82886;PMS5003;72660;51.258;-2.200;2023-12-14T00:14:36;14;13;
82886;PMS5003;72660;51.258;-2.200;2023-12-14T00:17:01;17;14;
82886;PMS5003;72660;51.258;-2.200;2023-12-14T00:19:27;15;12;
82886;PMS5003;72660;51.258;-2.200;2023-12-14T00:21:52;18;15;
82886;PMS5003;72660;51.258;-2.200;2023-12-14T00:24:17;14;12;
82886;PMS5003;72660;51.258;-2.200;2023-12-14T00:26:43;16;14;
82886;PMS5003;72660;51.258;-2.200;2023-12-14T00:29:08;18;16;
82886;PMS5003;72660;51.258;-2.200;2023-12-14T00:31:33;17;16;
82886;PMS5003;72660;51.258;-2.200;2023-12-14T00:33:59;13;11;
82886;PMS5003;72660;51.258;-2.200;2023-12-14T00:36:24;15;13;
82886;PMS5003;72660;51.258;-2.200;2023-12-14T00:38:49;18;16;
82886;PMS5003;72660;51.258;-2.200;2023-12-14T00:41:14;18;12;
82886;PMS5003;72660;51.258;-2.200;2023-12-14T00:43:40;16;16;
82886;PMS5003;72660;51.258;-2.200;2023-12-14T00:46:05;17;12;
82886;PMS5003;72660;51.258;-2.200;2023-12-14T00:48:31;17;15;
82886;PMS5003;72660;51.258;-2.200;2023-12-14T00:50:56;13;10;
82886;PMS5003;72660;51.258;-2.200;2023-12-14T00:53:22;11;10;
82886;PMS5003;72660;51.258;-2.200;2023-12-14T00:55:47;13;12;
82886;PMS5003;72660;51.258;-2.200;2023-12-14T00:58:13;11;10;
82886;PMS5003;72660;51.258;-2.200;2023-12-14T01:00:39;11;11;
82886;PMS5003;72660;51.258;-2.200;2023-12-14T01:03:04;10;10;
82886;PMS5003;72660;51.258;-2.200;2023-12-14T01:05:29;14;11;
82886;PMS5003;72660;51.258;-2.200;2023-12-14T01:07:55;12;12;
82886;PMS5003;72660;51.258;-2.200;2023-12-14T01:10:20;10;9;
82886;PMS5003;72660;51.258;-2.200;2023-12-14T01:12:45;8;8;
82886;PMS5003;72660;51.258;-2.200;2023-12-14T01:15:11;8;8;
82886;PMS5003;72660;51.258;-2.200;2023-12-14T01:17:36;11;11;
82886;PMS5003;72660;51.258;-2.200;2023-12-14T01:20:03;10;9;
82886;PMS5003;72660;51.258;-2.200;2023-12-14T01:22:27;7;7;
82886;PMS5003;72660;51.258;-2.200;2023-12-14T01:24:52;9;7;
82886;PMS5003;72660;51.258;-2.200;2023-12-14T01:27:18;7;7;
82886;PMS5003;72660;51.258;-2.200;2023-12-14T01:29:43;9;8;
82886;PMS5003;72660;51.258;-2.200;2023-12-14T01:32:09;8;8;
82886;PMS5003;72660;51.258;-2.200;2023-12-14T01:34:34;9;9;
82886;PMS5003;72660;51.258;-2.200;2023-12-14T01:37:00;10;10;
82886;PMS5003;72660;51.258;-2.200;2023-12-14T01:39:25;7;7;
82886;PMS5003;72660;51.258;-2.200;2023-12-14T01:41:51;10;9;
82886;PMS5003;72660;51.258;-2.200;2023-12-14T01:44:16;8;8;
82886;PMS5003;72660;51.258;-2.200;2023-12-14T01:46:41;8;8;
82886;PMS5003;72660;51.258;-2.200;2023-12-14T01:49:07;7;7;
82886;PMS5003;72660;51.258;-2.200;2023-12-14T01:51:33;10;10;
82886;PMS5003;72660;51.258;-2.200;2023-12-14T01:53:58;9;9;
82886;PMS5003;72660;51.258;-2.200;2023-12-14T01:56:24;8;8;
82886;PMS5003;72660;51.258;-2.200;2023-12-14T01:58:49;7;6;
82886;PMS5003;72660;51.258;-2.200;2023-12-14T02:01:17;10;8;
82886;PMS5003;72660;51.258;-2.200;2023-12-14T02:03:43;10;10;
82886;PMS5003;72660;51.258;-2.200;2023-12-14T02:06:05;11;9;
82886;PMS5003;72660;51.258;-2.200;2023-12-14T02:08:31;9;8;
82886;PMS5003;72660;51.258;-2.200;2023-12-14T02:10:56;11;8;
82886;PMS5003;72660;51.258;-2.200;2023-12-14T02:13:21;8;8;
82886;PMS5003;72660;51.258;-2.200;2023-12-14T02:15:47;8;7;
82886;PMS5003;72660;51.258;-2.200;2023-12-14T02:18:12;11;8;
82886;PMS5003;72660;51.258;-2.200;2023-12-14T02:20:37;9;9;
82886;PMS5003;72660;51.258;-2.200;2023-12-14T02:23:03;7;7;
82886;PMS5003;72660;51.258;-2.200;2023-12-14T02:25:28;7;7;
82886;PMS5003;72660;51.258;-2.200;2023-12-14T02:27:53;10;9;
82886;PMS5003;72660;51.258;-2.200;2023-12-14T02:30:19;9;8;
82886;PMS5003;72660;51.258;-2.200;2023-12-14T02:32:44;8;8;
82886;PMS5003;72660;51.258;-2.200;2023-12-14T02:35:09;13;9;
82886;PMS5003;72660;51.258;-2.200;2023-12-14T02:37:35;7;5;
82886;PMS5003;72660;51.258;-2.200;2023-12-14T02:40:01;7;6;
82886;PMS5003;72660;51.258;-2.200;2023-12-14T02:42:26;9;7;
82886;PMS5003;72660;51.258;-2.200;2023-12-14T02:44:51;9;7;
82886;PMS5003;72660;51.258;-2.200;2023-12-14T02:47:17;9;8;
82886;PMS5003;72660;51.258;-2.200;2023-12-14T02:49:42;10;6;
82886;PMS5003;72660;51.258;-2.200;2023-12-14T02:52:07;9;9;
82886;PMS5003;72660;51.258;-2.200;2023-12-14T02:54:33;8;8;
82886;PMS5003;72660;51.258;-2.200;2023-12-14T02:56:59;6;6;
82886;PMS5003;72660;51.258;-2.200;2023-12-14T02:59:24;8;7;
82886;PMS5003;72660;51.258;-2.200;2023-12-14T03:01:50;7;7;
82886;PMS5003;72660;51.258;-2.200;2023-12-14T03:04:15;5;5;
82886;PMS5003;72660;51.258;-2.200;2023-12-14T03:06:40;7;6;
82886;PMS5003;72660;51.258;-2.200;2023-12-14T03:09:06;7;7;
82886;PMS5003;72660;51.258;-2.200;2023-12-14T03:11:31;7;7;
82886;PMS5003;72660;51.258;-2.200;2023-12-14T03:13:57;9;9;
82886;PMS5003;72660;51.258;-2.200;2023-12-14T03:16:22;8;7;
82886;PMS5003;72660;51.258;-2.200;2023-12-14T03:18:48;9;6;
82886;PMS5003;72660;51.258;-2.200;2023-12-14T03:21:13;9;7;
82886;PMS5003;72660;51.258;-2.200;2023-12-14T03:23:38;7;7;
82886;PMS5003;72660;51.258;-2.200;2023-12-14T03:26:04;8;7;
82886;PMS5003;72660;51.258;-2.200;2023-12-14T03:28:29;7;7;
82886;PMS5003;72660;51.258;-2.200;2023-12-14T03:30:54;7;5;
82886;PMS5003;72660;51.258;-2.200;2023-12-14T03:33:20;6;6;
82886;PMS5003;72660;51.258;-2.200;2023-12-14T03:35:45;5;5;
82886;PMS5003;72660;51.258;-2.200;2023-12-14T03:38:10;7;7;
82886;PMS5003;72660;51.258;-2.200;2023-12-14T03:40:36;9;6;
82886;PMS5003;72660;51.258;-2.200;2023-12-14T03:43:01;6;6;
82886;PMS5003;72660;51.258;-2.200;2023-12-14T03:45:27;7;6;
82886;PMS5003;72660;51.258;-2.200;2023-12-14T03:47:52;10;7;
82886;PMS5003;72660;51.258;-2.200;2023-12-14T03:50:18;7;6;
82886;PMS5003;72660;51.258;-2.200;2023-12-14T03:52:43;10;7;
82886;PMS5003;72660;51.258;-2.200;2023-12-14T03:55:09;6;6;
82886;PMS5003;72660;51.258;-2.200;2023-12-14T03:57:34;13;12;
82886;PMS5003;72660;51.258;-2.200;2023-12-14T03:59:59;4;4;
82886;PMS5003;72660;51.258;-2.200;2023-12-14T04:02:25;8;7;
82886;PMS5003;72660;51.258;-2.200;2023-12-14T04:04:50;9;6;
82886;PMS5003;72660;51.258;-2.200;2023-12-14T04:07:16;6;4;
82886;PMS5003;72660;51.258;-2.200;2023-12-14T04:09:41;5;5;
82886;PMS5003;72660;51.258;-2.200;2023-12-14T04:12:06;7;6;
82886;PMS5003;72660;51.258;-2.200;2023-12-14T04:14:32;4;2;
82886;PMS5003;72660;51.258;-2.200;2023-12-14T04:16:57;6;5;
82886;PMS5003;72660;51.258;-2.200;2023-12-14T04:19:23;4;4;
82886;PMS5003;72660;51.258;-2.200;2023-12-14T04:21:48;4;4;
82886;PMS5003;72660;51.258;-2.200;2023-12-14T04:24:14;6;5;
82886;PMS5003;72660;51.258;-2.200;2023-12-14T04:26:39;5;4;
82886;PMS5003;72660;51.258;-2.200;2023-12-14T04:29:05;8;4;
82886;PMS5003;72660;51.258;-2.200;2023-12-14T04:31:30;3;3;
82886;PMS5003;72660;51.258;-2.200;2023-12-14T04:33:55;7;4;
82886;PMS5003;72660;51.258;-2.200;2023-12-14T04:36:21;3;3;
82886;PMS5003;72660;51.258;-2.200;2023-12-14T04:38:46;6;6;
82886;PMS5003;72660;51.258;-2.200;2023-12-14T04:41:12;4;4;
82886;PMS5003;72660;51.258;-2.200;2023-12-14T04:43:37;3;3;
82886;PMS5003;72660;51.258;-2.200;2023-12-14T04:46:03;4;4;
82886;PMS5003;72660;51.258;-2.200;2023-12-14T04:48:28;3;3;
82886;PMS5003;72660;51.258;-2.200;2023-12-14T04:50:54;5;5;
82886;PMS5003;72660;51.258;-2.200;2023-12-14T04:53:19;8;5;
82886;PMS5003;72660;51.258;-2.200;2023-12-14T04:55:44;5;5;
82886;PMS5003;72660;51.258;-2.200;2023-12-14T04:58:10;4;4;
82886;PMS5003;72660;51.258;-2.200;2023-12-14T05:00:35;5;4;
82886;PMS5003;72660;51.258;-2.200;2023-12-14T05:03:01;6;5;
82886;PMS5003;72660;51.258;-2.200;2023-12-14T05:05:26;2;2;
82886;PMS5003;72660;51.258;-2.200;2023-12-14T05:07:51;3;3;
82886;PMS5003;72660;51.258;-2.200;2023-12-14T05:10:17;8;4;
82886;PMS5003;72660;51.258;-2.200;2023-12-14T05:12:42;6;5;
82886;PMS5003;72660;51.258;-2.200;2023-12-14T05:15:08;4;4;
82886;PMS5003;72660;51.258;-2.200;2023-12-14T05:17:33;5;3;
82886;PMS5003;72660;51.258;-2.200;2023-12-14T05:19:59;4;3;
82886;PMS5003;72660;51.258;-2.200;2023-12-14T05:22:24;5;4;
82886;PMS5003;72660;51.258;-2.200;2023-12-14T05:24:49;3;3;
82886;PMS5003;72660;51.258;-2.200;2023-12-14T05:27:15;3;3;
82886;PMS5003;72660;51.258;-2.200;2023-12-14T05:29:40;4;4;
82886;PMS5003;72660;51.258;-2.200;2023-12-14T05:32:06;4;4;
82886;PMS5003;72660;51.258;-2.200;2023-12-14T05:34:31;4;4;
82886;PMS5003;72660;51.258;-2.200;2023-12-14T05:36:56;4;4;
82886;PMS5003;72660;51.258;-2.200;2023-12-14T05:39:22;5;4;
82886;PMS5003;72660;51.258;-2.200;2023-12-14T05:41:47;6;5;
82886;PMS5003;72660;51.258;-2.200;2023-12-14T05:44:13;4;4;
82886;PMS5003;72660;51.258;-2.200;2023-12-14T05:46:38;5;5;
82886;PMS5003;72660;51.258;-2.200;2023-12-14T05:49:04;4;4;
82886;PMS5003;72660;51.258;-2.200;2023-12-14T05:51:29;6;6;
82886;PMS5003;72660;51.258;-2.200;2023-12-14T05:53:55;5;5;
82886;PMS5003;72660;51.258;-2.200;2023-12-14T05:56:20;5;4;
82886;PMS5003;72660;51.258;-2.200;2023-12-14T05:58:45;4;4;
82886;PMS5003;72660;51.258;-2.200;2023-12-14T06:01:11;8;6;
82886;PMS5003;72660;51.258;-2.200;2023-12-14T06:03:36;8;5;
82886;PMS5003;72660;51.258;-2.200;2023-12-14T06:06:01;5;5;
82886;PMS5003;72660;51.258;-2.200;2023-12-14T06:08:27;3;3;
82886;PMS5003;72660;51.258;-2.200;2023-12-14T06:10:52;2;2;
82886;PMS5003;72660;51.258;-2.200;2023-12-14T06:13:17;5;5;
82886;PMS5003;72660;51.258;-2.200;2023-12-14T06:15:43;4;4;
82886;PMS5003;72660;51.258;-2.200;2023-12-14T06:18:09;3;3;
82886;PMS5003;72660;51.258;-2.200;2023-12-14T06:20:34;5;5;
82886;PMS5003;72660;51.258;-2.200;2023-12-14T06:22:59;6;5;
82886;PMS5003;72660;51.258;-2.200;2023-12-14T06:25:25;6;6;
82886;PMS5003;72660;51.258;-2.200;2023-12-14T06:27:50;5;5;
82886;PMS5003;72660;51.258;-2.200;2023-12-14T06:30:16;3;3;
82886;PMS5003;72660;51.258;-2.200;2023-12-14T06:32:41;6;6;
82886;PMS5003;72660;51.258;-2.200;2023-12-14T06:35:07;5;5;
82886;PMS5003;72660;51.258;-2.200;2023-12-14T06:37:32;6;6;
82886;PMS5003;72660;51.258;-2.200;2023-12-14T06:39:57;5;4;
82886;PMS5003;72660;51.258;-2.200;2023-12-14T06:42:23;6;6;
82886;PMS5003;72660;51.258;-2.200;2023-12-14T06:44:48;5;5;
82886;PMS5003;72660;51.258;-2.200;2023-12-14T06:47:14;4;3;
82886;PMS5003;72660;51.258;-2.200;2023-12-14T06:49:39;7;5;
82886;PMS5003;72660;51.258;-2.200;2023-12-14T06:52:04;5;5;
82886;PMS5003;72660;51.258;-2.200;2023-12-14T06:54:30;4;3;
82886;PMS5003;72660;51.258;-2.200;2023-12-14T06:56:55;5;5;
82886;PMS5003;72660;51.258;-2.200;2023-12-14T06:59:20;7;5;
82886;PMS5003;72660;51.258;-2.200;2023-12-14T07:01:46;7;6;
82886;PMS5003;72660;51.258;-2.200;2023-12-14T07:04:11;5;5;
82886;PMS5003;72660;51.258;-2.200;2023-12-14T07:06:37;4;4;
82886;PMS5003;72660;51.258;-2.200;2023-12-14T07:09:02;4;4;
82886;PMS5003;72660;51.258;-2.200;2023-12-14T07:11:27;6;6;
82886;PMS5003;72660;51.258;-2.200;2023-12-14T07:13:53;7;7;
82886;PMS5003;72660;51.258;-2.200;2023-12-14T07:16:18;5;3;
82886;PMS5003;72660;51.258;-2.200;2023-12-14T07:18:44;4;4;
82886;PMS5003;72660;51.258;-2.200;2023-12-14T07:21:09;4;4;
82886;PMS5003;72660;51.258;-2.200;2023-12-14T07:23:35;5;3;
82886;PMS5003;72660;51.258;-2.200;2023-12-14T07:26:00;7;6;
82886;PMS5003;72660;51.258;-2.200;2023-12-14T07:28:26;7;5;
82886;PMS5003;72660;51.258;-2.200;2023-12-14T07:30:51;4;4;
82886;PMS5003;72660;51.258;-2.200;2023-12-14T07:33:16;7;5;
82886;PMS5003;72660;51.258;-2.200;2023-12-14T07:35:41;5;5;
82886;PMS5003;72660;51.258;-2.200;2023-12-14T07:38:07;7;7;
82886;PMS5003;72660;51.258;-2.200;2023-12-14T07:40:32;6;5;
82886;PMS5003;72660;51.258;-2.200;2023-12-14T07:42:57;8;7;
82886;PMS5003;72660;51.258;-2.200;2023-12-14T07:45:23;6;6;
82886;PMS5003;72660;51.258;-2.200;2023-12-14T07:47:49;6;5;
82886;PMS5003;72660;51.258;-2.200;2023-12-14T07:50:14;5;5;
82886;PMS5003;72660;51.258;-2.200;2023-12-14T07:52:39;7;7;
82886;PMS5003;72660;51.258;-2.200;2023-12-14T07:55:05;7;7;
82886;PMS5003;72660;51.258;-2.200;2023-12-14T07:57:30;8;7;
82886;PMS5003;72660;51.258;-2.200;2023-12-14T07:59:55;6;6;
82886;PMS5003;72660;51.258;-2.200;2023-12-14T08:02:21;8;7;
82886;PMS5003;72660;51.258;-2.200;2023-12-14T08:04:46;7;6;
82886;PMS5003;72660;51.258;-2.200;2023-12-14T08:07:11;5;5;
82886;PMS5003;72660;51.258;-2.200;2023-12-14T08:09:37;4;4;
82886;PMS5003;72660;51.258;-2.200;2023-12-14T08:12:02;4;4;
82886;PMS5003;72660;51.258;-2.200;2023-12-14T08:14:27;7;7;
82886;PMS5003;72660;51.258;-2.200;2023-12-14T08:16:53;7;6;
82886;PMS5003;72660;51.258;-2.200;2023-12-14T08:19:18;3;3;
82886;PMS5003;72660;51.258;-2.200;2023-12-14T08:21:44;5;4;
82886;PMS5003;72660;51.258;-2.200;2023-12-14T08:24:09;7;7;
82886;PMS5003;72660;51.258;-2.200;2023-12-14T08:26:35;4;4;
82886;PMS5003;72660;51.258;-2.200;2023-12-14T08:29:00;4;4;
82886;PMS5003;72660;51.258;-2.200;2023-12-14T08:31:25;7;7;
82886;PMS5003;72660;51.258;-2.200;2023-12-14T08:33:50;7;5;
82886;PMS5003;72660;51.258;-2.200;2023-12-14T08:36:16;6;6;
82886;PMS5003;72660;51.258;-2.200;2023-12-14T08:38:41;3;3;
82886;PMS5003;72660;51.258;-2.200;2023-12-14T08:41:06;8;3;
82886;PMS5003;72660;51.258;-2.200;2023-12-14T08:43:32;6;3;
82886;PMS5003;72660;51.258;-2.200;2023-12-14T08:45:57;7;4;
82886;PMS5003;72660;51.258;-2.200;2023-12-14T08:48:23;3;3;
82886;PMS5003;72660;51.258;-2.200;2023-12-14T08:50:48;4;4;
82886;PMS5003;72660;51.258;-2.200;2023-12-14T08:53:13;5;5;
82886;PMS5003;72660;51.258;-2.200;2023-12-14T08:55:39;4;4;
82886;PMS5003;72660;51.258;-2.200;2023-12-14T08:58:04;7;5;
82886;PMS5003;72660;51.258;-2.200;2023-12-14T09:00:30;6;6;
82886;PMS5003;72660;51.258;-2.200;2023-12-14T09:02:55;6;5;
82886;PMS5003;72660;51.258;-2.200;2023-12-14T09:05:20;5;5;
82886;PMS5003;72660;51.258;-2.200;2023-12-14T09:07:46;7;6;
82886;PMS5003;72660;51.258;-2.200;2023-12-14T09:10:11;5;5;
82886;PMS5003;72660;51.258;-2.200;2023-12-14T09:12:37;6;5;
82886;PMS5003;72660;51.258;-2.200;2023-12-14T09:15:02;5;5;
82886;PMS5003;72660;51.258;-2.200;2023-12-14T09:17:27;4;4;
82886;PMS5003;72660;51.258;-2.200;2023-12-14T09:19:53;7;6;
82886;PMS5003;72660;51.258;-2.200;2023-12-14T09:22:18;5;4;
82886;PMS5003;72660;51.258;-2.200;2023-12-14T09:24:43;3;3;
82886;PMS5003;72660;51.258;-2.200;2023-12-14T09:27:09;3;3;
82886;PMS5003;72660;51.258;-2.200;2023-12-14T09:29:34;6;5;
82886;PMS5003;72660;51.258;-2.200;2023-12-14T09:32:00;7;4;
82886;PMS5003;72660;51.258;-2.200;2023-12-14T09:34:25;2;1;
82886;PMS5003;72660;51.258;-2.200;2023-12-14T09:36:50;4;4;
82886;PMS5003;72660;51.258;-2.200;2023-12-14T09:39:16;3;3;
82886;PMS5003;72660;51.258;-2.200;2023-12-14T09:41:41;5;5;
82886;PMS5003;72660;51.258;-2.200;2023-12-14T09:44:06;4;3;
82886;PMS5003;72660;51.258;-2.200;2023-12-14T09:46:32;3;3;
82886;PMS5003;72660;51.258;-2.200;2023-12-14T09:48:57;3;3;
82886;PMS5003;72660;51.258;-2.200;2023-12-14T09:51:22;4;4;
82886;PMS5003;72660;51.258;-2.200;2023-12-14T09:53:48;4;4;
82886;PMS5003;72660;51.258;-2.200;2023-12-14T09:56:13;2;2;
82886;PMS5003;72660;51.258;-2.200;2023-12-14T09:58:38;5;4;
82886;PMS5003;72660;51.258;-2.200;2023-12-14T10:03:29;4;3;
82886;PMS5003;72660;51.258;-2.200;2023-12-14T10:05:55;3;3;
82886;PMS5003;72660;51.258;-2.200;2023-12-14T10:08:20;3;3;
82886;PMS5003;72660;51.258;-2.200;2023-12-14T10:10:47;3;3;
82886;PMS5003;72660;51.258;-2.200;2023-12-14T10:13:11;3;3;
82886;PMS5003;72660;51.258;-2.200;2023-12-14T10:15:42;4;4;
82886;PMS5003;72660;51.258;-2.200;2023-12-14T10:18:02;3;3;
82886;PMS5003;72660;51.258;-2.200;2023-12-14T10:20:27;4;4;
82886;PMS5003;72660;51.258;-2.200;2023-12-14T10:22:53;4;2;
82886;PMS5003;72660;51.258;-2.200;2023-12-14T10:25:18;7;4;
82886;PMS5003;72660;51.258;-2.200;2023-12-14T10:27:45;4;3;
82886;PMS5003;72660;51.258;-2.200;2023-12-14T10:30:09;3;3;
82886;PMS5003;72660;51.258;-2.200;2023-12-14T10:32:34;2;2;
82886;PMS5003;72660;51.258;-2.200;2023-12-14T10:34:59;2;2;
82886;PMS5003;72660;51.258;-2.200;2023-12-14T10:37:25;2;2;
82886;PMS5003;72660;51.258;-2.200;2023-12-14T10:39:50;3;3;
82886;PMS5003;72660;51.258;-2.200;2023-12-14T10:42:15;2;2;
82886;PMS5003;72660;51.258;-2.200;2023-12-14T10:44:41;5;4;
82886;PMS5003;72660;51.258;-2.200;2023-12-14T10:47:06;3;3;
82886;PMS5003;72660;51.258;-2.200;2023-12-14T10:49:32;3;3;
82886;PMS5003;72660;51.258;-2.200;2023-12-14T10:51:57;2;2;
82886;PMS5003;72660;51.258;-2.200;2023-12-14T10:54:23;0;0;
82886;PMS5003;72660;51.258;-2.200;2023-12-14T10:56:48;3;3;
82886;PMS5003;72660;51.258;-2.200;2023-12-14T10:59:14;2;2;
82886;PMS5003;72660;51.258;-2.200;2023-12-14T11:01:38;4;3;
82886;PMS5003;72660;51.258;-2.200;2023-12-14T11:04:04;3;3;
82886;PMS5003;72660;51.258;-2.200;2023-12-14T11:06:30;2;2;
82886;PMS5003;72660;51.258;-2.200;2023-12-14T11:08:56;3;2;
82886;PMS5003;72660;51.258;-2.200;2023-12-14T11:11:20;2;2;
82886;PMS5003;72660;51.258;-2.200;2023-12-14T11:13:46;2;1;
82886;PMS5003;72660;51.258;-2.200;2023-12-14T11:16:11;3;2;
82886;PMS5003;72660;51.258;-2.200;2023-12-14T11:18:36;4;2;
82886;PMS5003;72660;51.258;-2.200;2023-12-14T11:21:01;1;1;
82886;PMS5003;72660;51.258;-2.200;2023-12-14T11:23:29;1;1;
82886;PMS5003;72660;51.258;-2.200;2023-12-14T11:25:52;6;4;
82886;PMS5003;72660;51.258;-2.200;2023-12-14T11:28:17;4;4;
82886;PMS5003;72660;51.258;-2.200;2023-12-14T11:30:43;2;0;
82886;PMS5003;72660;51.258;-2.200;2023-12-14T11:33:08;4;3;
82886;PMS5003;72660;51.258;-2.200;2023-12-14T11:35:33;3;3;
82886;PMS5003;72660;51.258;-2.200;2023-12-14T11:37:59;3;3;
82886;PMS5003;72660;51.258;-2.200;2023-12-14T11:40:24;3;3;
82886;PMS5003;72660;51.258;-2.200;2023-12-14T11:45:15;3;2;
82886;PMS5003;72660;51.258;-2.200;2023-12-14T11:47:40;2;2;
82886;PMS5003;72660;51.258;-2.200;2023-12-14T11:50:06;3;3;
82886;PMS5003;72660;51.258;-2.200;2023-12-14T11:52:31;4;2;
82886;PMS5003;72660;51.258;-2.200;2023-12-14T11:54:56;3;3;
82886;PMS5003;72660;51.258;-2.200;2023-12-14T11:57:22;2;2;
82886;PMS5003;72660;51.258;-2.200;2023-12-14T11:59:47;3;3;
82886;PMS5003;72660;51.258;-2.200;2023-12-14T12:02:12;4;4;
82886;PMS5003;72660;51.258;-2.200;2023-12-14T12:04:38;5;5;
82886;PMS5003;72660;51.258;-2.200;2023-12-14T12:07:04;6;5;
82886;PMS5003;72660;51.258;-2.200;2023-12-14T12:09:33;3;2;
82886;PMS5003;72660;51.258;-2.200;2023-12-14T12:11:54;3;3;
82886;PMS5003;72660;51.258;-2.200;2023-12-14T12:14:19;8;6;
82886;PMS5003;72660;51.258;-2.200;2023-12-14T12:16:44;3;3;
82886;PMS5003;72660;51.258;-2.200;2023-12-14T12:19:10;6;5;
82886;PMS5003;72660;51.258;-2.200;2023-12-14T12:21:35;4;4;
82886;PMS5003;72660;51.258;-2.200;2023-12-14T12:24:01;5;5;
82886;PMS5003;72660;51.258;-2.200;2023-12-14T12:26:26;5;5;
82886;PMS5003;72660;51.258;-2.200;2023-12-14T12:28:51;5;5;
82886;PMS5003;72660;51.258;-2.200;2023-12-14T12:31:17;3;3;
82886;PMS5003;72660;51.258;-2.200;2023-12-14T12:33:42;6;6;
82886;PMS5003;72660;51.258;-2.200;2023-12-14T12:36:08;6;5;
82886;PMS5003;72660;51.258;-2.200;2023-12-14T12:38:33;6;5;
82886;PMS5003;72660;51.258;-2.200;2023-12-14T12:40:58;4;4;
82886;PMS5003;72660;51.258;-2.200;2023-12-14T12:43:23;4;4;
82886;PMS5003;72660;51.258;-2.200;2023-12-14T12:45:49;5;4;
82886;PMS5003;72660;51.258;-2.200;2023-12-14T12:48:14;6;6;
82886;PMS5003;72660;51.258;-2.200;2023-12-14T12:50:39;6;5;
82886;PMS5003;72660;51.258;-2.200;2023-12-14T12:53:05;5;5;
82886;PMS5003;72660;51.258;-2.200;2023-12-14T12:55:30;8;6;
82886;PMS5003;72660;51.258;-2.200;2023-12-14T12:57:55;8;7;
82886;PMS5003;72660;51.258;-2.200;2023-12-14T13:00:21;10;8;
82886;PMS5003;72660;51.258;-2.200;2023-12-14T13:02:46;6;6;
82886;PMS5003;72660;51.258;-2.200;2023-12-14T13:05:12;5;5;
82886;PMS5003;72660;51.258;-2.200;2023-12-14T13:07:37;5;5;
82886;PMS5003;72660;51.258;-2.200;2023-12-14T13:10:02;7;7;
82886;PMS5003;72660;51.258;-2.200;2023-12-14T13:12:28;9;9;
82886;PMS5003;72660;51.258;-2.200;2023-12-14T13:14:53;6;6;
82886;PMS5003;72660;51.258;-2.200;2023-12-14T13:17:18;7;7;
82886;PMS5003;72660;51.258;-2.200;2023-12-14T13:19:44;8;8;
82886;PMS5003;72660;51.258;-2.200;2023-12-14T13:22:09;8;8;
82886;PMS5003;72660;51.258;-2.200;2023-12-14T13:24:34;9;6;
82886;PMS5003;72660;51.258;-2.200;2023-12-14T13:26:59;7;7;
82886;PMS5003;72660;51.258;-2.200;2023-12-14T13:29:25;8;7;
82886;PMS5003;72660;51.258;-2.200;2023-12-14T13:31:49;9;9;
82886;PMS5003;72660;51.258;-2.200;2023-12-14T13:34:15;6;6;
82886;PMS5003;72660;51.258;-2.200;2023-12-14T13:36:40;5;5;
82886;PMS5003;72660;51.258;-2.200;2023-12-14T13:39:06;10;10;
82886;PMS5003;72660;51.258;-2.200;2023-12-14T13:41:31;11;8;
82886;PMS5003;72660;51.258;-2.200;2023-12-14T13:43:56;8;8;
82886;PMS5003;72660;51.258;-2.200;2023-12-14T13:46:22;7;6;
82886;PMS5003;72660;51.258;-2.200;2023-12-14T13:48:47;9;6;
82886;PMS5003;72660;51.258;-2.200;2023-12-14T13:51:12;7;7;
82886;PMS5003;72660;51.258;-2.200;2023-12-14T13:53:38;5;5;
82886;PMS5003;72660;51.258;-2.200;2023-12-14T13:56:03;5;5;
82886;PMS5003;72660;51.258;-2.200;2023-12-14T13:58:28;8;7;
82886;PMS5003;72660;51.258;-2.200;2023-12-14T14:00:53;8;8;
82886;PMS5003;72660;51.258;-2.200;2023-12-14T14:03:19;6;6;
82886;PMS5003;72660;51.258;-2.200;2023-12-14T14:05:44;4;4;
82886;PMS5003;72660;51.258;-2.200;2023-12-14T14:08:09;3;3;
82886;PMS5003;72660;51.258;-2.200;2023-12-14T14:10:35;7;6;
82886;PMS5003;72660;51.258;-2.200;2023-12-14T14:13:01;5;5;
82886;PMS5003;72660;51.258;-2.200;2023-12-14T14:15:26;7;6;
82886;PMS5003;72660;51.258;-2.200;2023-12-14T14:17:51;6;5;
82886;PMS5003;72660;51.258;-2.200;2023-12-14T14:20:16;6;4;
82886;PMS5003;72660;51.258;-2.200;2023-12-14T14:22:42;5;5;
82886;PMS5003;72660;51.258;-2.200;2023-12-14T14:25:07;5;5;
82886;PMS5003;72660;51.258;-2.200;2023-12-14T14:27:33;4;4;
82886;PMS5003;72660;51.258;-2.200;2023-12-14T14:29:58;6;4;
82886;PMS5003;72660;51.258;-2.200;2023-12-14T14:32:23;3;3;
82886;PMS5003;72660;51.258;-2.200;2023-12-14T14:34:48;5;4;
82886;PMS5003;72660;51.258;-2.200;2023-12-14T14:37:14;2;2;
82886;PMS5003;72660;51.258;-2.200;2023-12-14T14:39:39;3;3;
82886;PMS5003;72660;51.258;-2.200;2023-12-14T14:42:05;4;3;
82886;PMS5003;72660;51.258;-2.200;2023-12-14T14:44:30;3;3;
82886;PMS5003;72660;51.258;-2.200;2023-12-14T14:46:55;3;3;
82886;PMS5003;72660;51.258;-2.200;2023-12-14T14:49:20;2;2;
82886;PMS5003;72660;51.258;-2.200;2023-12-14T14:51:46;2;2;
82886;PMS5003;72660;51.258;-2.200;2023-12-14T14:54:11;1;1;
82886;PMS5003;72660;51.258;-2.200;2023-12-14T14:56:36;3;3;
82886;PMS5003;72660;51.258;-2.200;2023-12-14T14:59:01;2;2;
82886;PMS5003;72660;51.258;-2.200;2023-12-14T15:01:27;4;4;
82886;PMS5003;72660;51.258;-2.200;2023-12-14T15:03:52;5;3;
82886;PMS5003;72660;51.258;-2.200;2023-12-14T15:06:17;6;4;
82886;PMS5003;72660;51.258;-2.200;2023-12-14T15:08:43;5;5;
82886;PMS5003;72660;51.258;-2.200;2023-12-14T15:11:08;4;4;
82886;PMS5003;72660;51.258;-2.200;2023-12-14T15:13:33;3;3;
82886;PMS5003;72660;51.258;-2.200;2023-12-14T15:15:59;2;2;
82886;PMS5003;72660;51.258;-2.200;2023-12-14T15:18:24;4;3;
82886;PMS5003;72660;51.258;-2.200;2023-12-14T15:20:49;5;4;
82886;PMS5003;72660;51.258;-2.200;2023-12-14T15:23:14;3;3;
82886;PMS5003;72660;51.258;-2.200;2023-12-14T15:25:40;3;3;
82886;PMS5003;72660;51.258;-2.200;2023-12-14T15:28:05;3;1;
82886;PMS5003;72660;51.258;-2.200;2023-12-14T15:30:31;4;4;
82886;PMS5003;72660;51.258;-2.200;2023-12-14T15:32:56;7;5;
82886;PMS5003;72660;51.258;-2.200;2023-12-14T15:35:21;6;5;
82886;PMS5003;72660;51.258;-2.200;2023-12-14T15:37:47;3;3;
82886;PMS5003;72660;51.258;-2.200;2023-12-14T15:40:12;2;1;
82886;PMS5003;72660;51.258;-2.200;2023-12-14T15:42:37;5;3;
82886;PMS5003;72660;51.258;-2.200;2023-12-14T15:45:03;3;3;
82886;PMS5003;72660;51.258;-2.200;2023-12-14T15:47:28;2;2;
82886;PMS5003;72660;51.258;-2.200;2023-12-14T15:49:53;2;2;
82886;PMS5003;72660;51.258;-2.200;2023-12-14T15:52:19;3;3;
82886;PMS5003;72660;51.258;-2.200;2023-12-14T15:54:44;7;5;
82886;PMS5003;72660;51.258;-2.200;2023-12-14T15:57:09;5;5;
82886;PMS5003;72660;51.258;-2.200;2023-12-14T15:59:35;4;4;
82886;PMS5003;72660;51.258;-2.200;2023-12-14T16:02:00;6;5;
82886;PMS5003;72660;51.258;-2.200;2023-12-14T16:04:25;5;5;
82886;PMS5003;72660;51.258;-2.200;2023-12-14T16:06:50;6;6;
82886;PMS5003;72660;51.258;-2.200;2023-12-14T16:09:17;6;6;
82886;PMS5003;72660;51.258;-2.200;2023-12-14T16:11:42;5;5;
82886;PMS5003;72660;51.258;-2.200;2023-12-14T16:14:07;6;6;
82886;PMS5003;72660;51.258;-2.200;2023-12-14T16:16:33;7;6;
82886;PMS5003;72660;51.258;-2.200;2023-12-14T16:18:58;5;5;
82886;PMS5003;72660;51.258;-2.200;2023-12-14T16:21:23;5;5;